createdAt,value
2018-12-12T00:00:52.151Z,0.00
2018-12-12T00:01:52.125Z,0.00
2018-12-12T00:02:52.068Z,0.00
2018-12-12T00:03:52.087Z,0.00
2018-12-12T00:04:52.045Z,0.00
2018-12-12T00:05:52.041Z,0.00
2018-12-12T00:06:52.054Z,0.00
2018-12-12T00:07:52.069Z,0.00
2018-12-12T00:08:52.005Z,0.00
2018-12-12T00:09:52.018Z,0.00
2018-12-12T00:10:52.061Z,0.00
2018-12-12T00:11:51.991Z,0.00
2018-12-12T00:12:51.964Z,0.00
2018-12-12T00:13:51.959Z,0.00
2018-12-12T00:14:51.934Z,0.00
2018-12-12T00:15:51.975Z,0.00
2018-12-12T00:16:52.017Z,0.00
2018-12-12T00:17:51.930Z,0.00
2018-12-12T00:18:51.905Z,0.00
2018-12-12T00:19:51.884Z,0.00
2018-12-12T00:20:51.875Z,0.00
2018-12-12T00:21:51.920Z,0.00
2018-12-12T00:22:51.871Z,0.00
2018-12-12T00:25:02.069Z,0.00
2018-12-12T00:26:02.159Z,0.00
2018-12-12T00:27:02.064Z,0.00
2018-12-12T00:28:02.038Z,0.00
2018-12-12T00:29:02.028Z,0.00
2018-12-12T00:30:02.034Z,0.00
2018-12-12T00:31:09.578Z,0.00
2018-12-12T00:32:02.011Z,0.00
2018-12-12T00:33:01.980Z,0.00
2018-12-12T00:34:01.971Z,0.00
2018-12-12T00:35:02.031Z,0.00
2018-12-12T00:36:01.981Z,0.00
2018-12-12T00:37:01.988Z,0.00
2018-12-12T00:38:01.955Z,0.00
2018-12-12T00:39:01.936Z,0.00
2018-12-12T00:40:01.912Z,0.00
2018-12-12T00:41:01.915Z,0.00
2018-12-12T00:42:01.943Z,0.00
2018-12-12T00:43:01.877Z,0.00
2018-12-12T00:44:01.874Z,0.00
2018-12-12T00:45:01.909Z,0.00
2018-12-12T00:46:01.851Z,0.00
2018-12-12T00:47:10.882Z,0.00
2018-12-12T00:48:01.836Z,0.00
2018-12-12T00:49:10.619Z,0.00
2018-12-12T00:50:09.417Z,0.00
2018-12-12T00:51:01.798Z,0.00
2018-12-12T00:52:01.873Z,0.00
2018-12-12T00:53:01.774Z,0.00
2018-12-12T00:54:01.765Z,0.00
2018-12-12T00:55:01.805Z,0.00
2018-12-12T00:56:01.753Z,0.00
2018-12-12T00:57:01.741Z,0.00
2018-12-12T00:58:01.776Z,0.00
2018-12-12T00:59:01.711Z,0.00
2018-12-12T01:00:10.306Z,0.00
2018-12-12T01:01:01.681Z,0.00
2018-12-12T01:02:01.722Z,0.00
2018-12-12T01:03:01.659Z,0.00
2018-12-12T01:04:01.686Z,0.00
2018-12-12T01:05:01.642Z,0.00
2018-12-12T01:06:01.628Z,0.00
2018-12-12T01:07:01.639Z,0.00
2018-12-12T01:08:01.611Z,0.00
2018-12-12T01:09:01.596Z,0.00
2018-12-12T01:10:01.594Z,0.00
2018-12-12T01:11:01.598Z,0.00
2018-12-12T01:12:01.581Z,0.00
2018-12-12T01:13:01.570Z,0.00
2018-12-12T01:14:01.539Z,0.00
2018-12-12T01:15:01.532Z,0.00
2018-12-12T01:16:01.513Z,0.00
2018-12-12T01:17:01.542Z,0.00
2018-12-12T01:18:01.545Z,0.00
2018-12-12T01:19:01.516Z,0.00
2018-12-12T01:20:01.528Z,0.00
2018-12-12T01:21:01.459Z,0.00
2018-12-12T01:22:01.453Z,0.00
2018-12-12T01:23:13.063Z,0.00
2018-12-12T01:24:01.485Z,0.00
2018-12-12T01:25:01.445Z,0.00
2018-12-12T01:26:01.430Z,0.00
2018-12-12T01:27:01.407Z,0.00
2018-12-12T01:28:01.411Z,0.00
2018-12-12T01:29:01.402Z,0.00
2018-12-12T01:30:01.413Z,0.00
2018-12-12T01:31:01.410Z,0.00
2018-12-12T01:32:01.344Z,0.00
2018-12-12T01:33:01.373Z,0.00
2018-12-12T01:34:01.363Z,0.00
2018-12-12T01:35:01.313Z,0.00
2018-12-12T01:36:01.335Z,0.00
2018-12-12T01:37:01.307Z,0.00
2018-12-12T01:38:13.151Z,0.00
2018-12-12T01:39:01.298Z,0.00
2018-12-12T01:40:01.256Z,0.00
2018-12-12T01:41:01.261Z,0.00
2018-12-12T01:42:08.790Z,0.00
2018-12-12T01:43:01.229Z,0.00
2018-12-12T01:44:01.237Z,0.00
2018-12-12T01:45:01.213Z,0.00
2018-12-12T01:46:01.191Z,0.00
2018-12-12T01:47:01.224Z,0.00
2018-12-12T01:48:01.188Z,0.00
2018-12-12T01:49:01.206Z,0.00
2018-12-12T01:50:01.151Z,0.00
2018-12-12T01:51:01.157Z,0.00
2018-12-12T01:52:01.135Z,0.00
2018-12-12T01:53:01.159Z,0.00
2018-12-12T01:54:01.126Z,0.00
2018-12-12T01:55:10.918Z,0.00
2018-12-12T01:56:01.086Z,0.00
2018-12-12T01:57:01.075Z,0.00
2018-12-12T01:58:01.066Z,0.00
2018-12-12T01:59:01.095Z,0.00
2018-12-12T02:00:01.043Z,0.00
2018-12-12T02:01:01.036Z,0.00
2018-12-12T02:02:01.017Z,0.00
2018-12-12T02:03:01.016Z,0.00
2018-12-12T02:04:00.997Z,0.00
2018-12-12T02:05:01.019Z,0.00
2018-12-12T02:06:01.019Z,0.00
2018-12-12T02:07:00.970Z,0.00
2018-12-12T02:08:00.952Z,0.00
2018-12-12T02:09:00.959Z,0.00
2018-12-12T02:10:00.958Z,0.00
2018-12-12T02:11:00.922Z,0.00
2018-12-12T02:12:00.933Z,0.00
2018-12-12T02:13:00.900Z,0.00
2018-12-12T02:14:00.882Z,0.00
2018-12-12T02:15:00.894Z,0.00
2018-12-12T02:16:00.900Z,0.00
2018-12-12T02:17:00.869Z,0.00
2018-12-12T02:18:00.902Z,0.00
2018-12-12T02:19:00.842Z,0.00
2018-12-12T02:20:00.879Z,0.00
2018-12-12T02:21:00.821Z,0.00
2018-12-12T02:22:00.796Z,0.00
2018-12-12T02:23:00.793Z,0.00
2018-12-12T02:24:00.780Z,0.00
2018-12-12T02:25:00.813Z,0.00
2018-12-12T02:26:00.761Z,0.00
2018-12-12T02:27:00.807Z,0.00
2018-12-12T02:28:00.732Z,0.00
2018-12-12T02:29:00.721Z,0.00
2018-12-12T02:30:00.739Z,0.00
2018-12-12T02:31:00.742Z,0.00
2018-12-12T02:32:00.689Z,0.00
2018-12-12T02:33:00.679Z,0.00
2018-12-12T02:34:00.675Z,0.00
2018-12-12T02:35:00.679Z,0.00
2018-12-12T02:36:00.644Z,0.00
2018-12-12T02:37:00.693Z,0.00
2018-12-12T02:38:00.623Z,0.00
2018-12-12T02:39:00.612Z,0.00
2018-12-12T02:40:00.702Z,0.00
2018-12-12T02:41:00.615Z,0.00
2018-12-12T02:42:00.578Z,0.00
2018-12-12T02:43:00.564Z,0.00
2018-12-12T02:44:00.559Z,0.00
2018-12-12T02:45:00.567Z,0.00
2018-12-12T02:46:00.636Z,0.00
2018-12-12T02:47:00.573Z,0.00
2018-12-12T02:48:00.545Z,0.00
2018-12-12T02:49:09.324Z,0.00
2018-12-12T02:50:00.521Z,0.00
2018-12-12T02:51:00.496Z,0.00
2018-12-12T02:52:00.472Z,0.00
2018-12-12T02:53:00.503Z,0.00
2018-12-12T02:54:00.466Z,0.00
2018-12-12T02:55:00.481Z,0.00
2018-12-12T02:56:00.432Z,0.00
2018-12-12T02:57:00.418Z,0.00
2018-12-12T02:58:00.426Z,0.00
2018-12-12T02:59:00.418Z,0.00
2018-12-12T03:00:00.405Z,0.00
2018-12-12T03:01:00.378Z,0.00
2018-12-12T03:02:00.368Z,0.00
2018-12-12T03:03:00.361Z,0.00
2018-12-12T03:04:00.343Z,0.00
2018-12-12T03:05:00.392Z,0.00
2018-12-12T03:06:00.354Z,0.00
2018-12-12T03:07:00.328Z,0.00
2018-12-12T03:08:00.308Z,0.00
2018-12-12T03:09:00.291Z,0.00
2018-12-12T03:10:00.287Z,0.00
2018-12-12T03:11:00.300Z,0.00
2018-12-12T03:12:00.276Z,0.00
2018-12-12T03:13:00.276Z,0.00
2018-12-12T03:14:00.244Z,0.00
2018-12-12T03:15:00.232Z,0.00
2018-12-12T03:16:00.243Z,0.00
2018-12-12T03:17:00.204Z,0.00
2018-12-12T03:18:00.213Z,0.00
2018-12-12T03:19:00.191Z,0.00
2018-12-12T03:20:00.184Z,0.00
2018-12-12T03:21:09.857Z,0.00
2018-12-12T03:22:07.723Z,0.00
2018-12-12T03:23:00.139Z,0.00
2018-12-12T03:24:07.715Z,0.00
2018-12-12T03:25:00.133Z,0.00
2018-12-12T03:26:00.108Z,0.00
2018-12-12T03:27:00.131Z,0.00
2018-12-12T03:28:00.100Z,0.00
2018-12-12T03:29:00.078Z,0.00
2018-12-12T03:30:00.086Z,0.00
2018-12-12T03:31:00.056Z,0.00
2018-12-12T03:32:00.090Z,0.00
2018-12-12T03:33:00.040Z,0.00
2018-12-12T03:34:00.044Z,0.00
2018-12-12T03:35:00.013Z,0.00
2018-12-12T03:36:00.034Z,0.00
2018-12-12T03:37:00.038Z,0.00
2018-12-12T03:37:59.982Z,0.00
2018-12-12T03:38:59.972Z,0.00
2018-12-12T03:39:59.964Z,0.00
2018-12-12T03:40:59.991Z,0.00
2018-12-12T03:41:59.975Z,0.00
2018-12-12T03:42:59.957Z,0.00
2018-12-12T03:43:59.912Z,0.00
2018-12-12T03:44:59.911Z,0.00
2018-12-12T03:45:59.900Z,0.00
2018-12-12T03:46:59.954Z,0.00
2018-12-12T03:47:59.923Z,0.00
2018-12-12T03:48:59.906Z,0.00
2018-12-12T03:49:59.857Z,0.00
2018-12-12T03:50:59.851Z,0.00
2018-12-12T03:51:59.831Z,0.00
2018-12-12T03:52:59.842Z,0.00
2018-12-12T03:53:59.808Z,0.00
2018-12-12T03:54:59.799Z,0.00
2018-12-12T03:56:07.981Z,0.00
2018-12-12T03:56:59.785Z,0.00
2018-12-12T03:57:59.915Z,0.00
2018-12-12T03:58:59.763Z,0.00
2018-12-12T03:59:59.741Z,0.00
2018-12-12T04:00:59.778Z,0.00
2018-12-12T04:02:07.319Z,0.00
2018-12-12T04:02:59.783Z,0.00
2018-12-12T04:03:59.708Z,0.00
2018-12-12T04:04:59.696Z,0.00
2018-12-12T04:05:59.692Z,0.00
2018-12-12T04:06:59.766Z,0.00
2018-12-12T04:07:59.733Z,0.00
2018-12-12T04:08:59.646Z,0.00
2018-12-12T04:09:59.657Z,0.00
2018-12-12T04:10:59.623Z,0.00
2018-12-12T04:11:59.616Z,0.00
2018-12-12T04:12:59.620Z,0.00
2018-12-12T04:13:59.862Z,0.00
2018-12-12T04:14:59.606Z,0.00
2018-12-12T04:15:59.581Z,0.00
2018-12-12T04:16:59.560Z,0.00
2018-12-12T04:17:59.569Z,0.00
2018-12-12T04:18:59.599Z,0.00
2018-12-12T04:19:59.584Z,0.00
2018-12-12T04:20:59.515Z,0.00
2018-12-12T04:21:59.511Z,0.00
2018-12-12T04:22:59.528Z,0.00
2018-12-12T04:23:59.486Z,0.00
2018-12-12T04:24:59.492Z,0.00
2018-12-12T04:25:59.467Z,0.00
2018-12-12T04:26:59.483Z,0.00
2018-12-12T04:27:59.483Z,0.00
2018-12-12T04:28:59.499Z,0.00
2018-12-12T04:29:59.420Z,0.00
2018-12-12T04:30:59.410Z,0.00
2018-12-12T04:31:59.405Z,0.00
2018-12-12T04:32:59.444Z,0.00
2018-12-12T04:33:59.425Z,0.00
2018-12-12T04:34:59.386Z,0.00
2018-12-12T04:35:59.402Z,0.00
2018-12-12T04:36:59.359Z,0.00
2018-12-12T04:37:59.376Z,0.00
2018-12-12T04:38:59.331Z,0.00
2018-12-12T04:39:59.340Z,0.00
2018-12-12T04:40:59.312Z,0.00
2018-12-12T04:41:59.298Z,0.00
2018-12-12T04:42:59.280Z,0.00
2018-12-12T04:43:59.324Z,0.00
2018-12-12T04:44:59.288Z,0.00
2018-12-12T04:45:59.313Z,0.00
2018-12-12T04:46:59.241Z,0.00
2018-12-12T04:47:59.231Z,0.00
2018-12-12T04:48:59.235Z,0.00
2018-12-12T04:49:59.214Z,0.00
2018-12-12T04:50:59.202Z,0.00
2018-12-12T04:51:59.194Z,0.00
2018-12-12T04:52:59.176Z,0.00
2018-12-12T04:53:59.191Z,0.00
2018-12-12T04:54:59.160Z,0.00
2018-12-12T04:55:59.151Z,0.00
2018-12-12T04:56:59.136Z,0.00
2018-12-12T04:57:59.123Z,0.00
2018-12-12T04:58:59.160Z,0.00
2018-12-12T04:59:59.112Z,0.00
2018-12-12T05:00:59.086Z,0.00
2018-12-12T05:01:59.085Z,0.00
2018-12-12T05:02:59.086Z,0.00
2018-12-12T05:03:59.052Z,0.00
2018-12-12T05:04:59.106Z,0.00
2018-12-12T05:05:59.065Z,0.00
2018-12-12T05:06:59.029Z,0.00
2018-12-12T05:07:59.015Z,0.00
2018-12-12T05:08:59.095Z,0.00
2018-12-12T05:09:59.008Z,0.00
2018-12-12T05:10:58.976Z,0.00
2018-12-12T05:11:58.968Z,0.00
2018-12-12T05:12:59.007Z,0.00
2018-12-12T05:13:58.956Z,0.00
2018-12-12T05:14:58.957Z,0.00
2018-12-12T05:15:58.926Z,0.00
2018-12-12T05:16:58.974Z,0.00
2018-12-12T05:17:58.903Z,0.00
2018-12-12T05:18:58.891Z,0.00
2018-12-12T05:19:58.937Z,0.00
2018-12-12T05:20:58.879Z,0.00
2018-12-12T05:21:58.883Z,0.00
2018-12-12T05:22:58.896Z,0.00
2018-12-12T05:23:58.836Z,0.00
2018-12-12T05:25:06.865Z,0.00
2018-12-12T05:26:06.381Z,0.00
2018-12-12T05:28:17.919Z,0.00
2018-12-12T05:29:26.501Z,0.00
2018-12-12T05:31:49.092Z,0.00
2018-12-12T05:32:49.059Z,0.00
2018-12-12T05:33:57.612Z,0.00
2018-12-12T05:34:49.029Z,0.00
2018-12-12T05:35:49.045Z,0.00
2018-12-12T05:36:49.020Z,0.00
2018-12-12T05:37:51.842Z,0.00
2018-12-12T05:38:48.990Z,0.00
2018-12-12T05:39:48.979Z,0.00
2018-12-12T05:40:48.990Z,0.00
2018-12-12T05:41:48.993Z,0.00
2018-12-12T05:42:48.944Z,0.00
2018-12-12T05:43:48.932Z,0.00
2018-12-12T05:44:48.986Z,0.00
2018-12-12T05:45:48.983Z,0.00
2018-12-12T05:46:48.920Z,0.00
2018-12-12T05:47:48.888Z,0.00
2018-12-12T05:48:48.901Z,0.00
2018-12-12T05:49:48.874Z,0.00
2018-12-12T05:50:48.890Z,0.00
2018-12-12T05:51:48.853Z,0.00
2018-12-12T05:52:48.859Z,0.00
2018-12-12T05:53:48.825Z,0.00
2018-12-12T05:54:57.926Z,0.00
2018-12-12T05:55:48.805Z,0.00
2018-12-12T05:56:52.285Z,0.00
2018-12-12T05:57:56.371Z,0.00
2018-12-12T05:58:48.771Z,0.00
2018-12-12T05:59:48.759Z,0.00
2018-12-12T06:00:48.750Z,0.00
2018-12-12T06:01:48.765Z,0.00
2018-12-12T06:02:48.759Z,0.00
2018-12-12T06:03:48.730Z,0.00
2018-12-12T06:04:48.709Z,0.00
2018-12-12T06:05:48.695Z,0.00
2018-12-12T06:06:48.713Z,0.00
2018-12-12T06:07:56.271Z,0.00
2018-12-12T06:09:58.914Z,0.00
2018-12-12T06:12:32.562Z,0.00
2018-12-12T06:13:42.411Z,0.00
2018-12-12T06:14:43.743Z,0.00
2018-12-12T06:15:40.859Z,0.00
2018-12-12T06:16:32.264Z,0.00
2018-12-12T06:17:40.935Z,0.00
2018-12-12T06:19:52.001Z,0.00
2018-12-12T06:22:02.521Z,0.00
2018-12-12T06:24:24.296Z,0.00
2018-12-12T06:25:24.329Z,0.00
2018-12-12T06:26:24.262Z,0.00
2018-12-12T06:27:24.273Z,0.00
2018-12-12T06:28:24.236Z,0.00
2018-12-12T06:30:42.047Z,0.00
2018-12-12T06:31:42.036Z,0.00
2018-12-12T06:32:42.093Z,0.00
2018-12-12T06:33:42.017Z,0.00
2018-12-12T06:34:42.040Z,0.00
2018-12-12T06:35:42.006Z,0.00
2018-12-12T06:36:41.980Z,0.00
2018-12-12T06:37:42.060Z,0.00
2018-12-12T06:38:41.960Z,0.00
2018-12-12T06:39:41.963Z,0.00
2018-12-12T06:40:41.937Z,0.00
2018-12-12T06:41:41.925Z,0.00
2018-12-12T06:42:41.910Z,0.00
2018-12-12T06:43:41.958Z,0.00
2018-12-12T06:44:41.893Z,0.00
2018-12-12T06:45:41.919Z,0.00
2018-12-12T06:46:41.874Z,0.00
2018-12-12T06:47:41.880Z,0.00
2018-12-12T06:48:41.935Z,0.00
2018-12-12T06:49:41.842Z,0.00
2018-12-12T06:50:41.858Z,0.00
2018-12-12T06:51:41.806Z,0.00
2018-12-12T06:52:41.799Z,0.00
2018-12-12T06:53:41.850Z,0.00
2018-12-12T06:54:41.780Z,0.00
2018-12-12T06:55:41.767Z,4.00
2018-12-12T06:56:41.757Z,4.00
2018-12-12T06:57:41.740Z,0.00
2018-12-12T06:58:41.798Z,0.00
2018-12-12T06:59:41.720Z,4.00
2018-12-12T07:00:41.711Z,4.00
2018-12-12T07:01:41.769Z,4.00
2018-12-12T07:02:41.688Z,4.00
2018-12-12T07:03:41.677Z,4.00
2018-12-12T07:04:41.814Z,4.00
2018-12-12T07:05:41.667Z,8.00
2018-12-12T07:06:41.647Z,4.00
2018-12-12T07:07:41.652Z,8.00
2018-12-12T07:08:41.624Z,8.00
2018-12-12T07:09:41.664Z,8.00
2018-12-12T07:10:41.811Z,12.00
2018-12-12T07:11:49.166Z,8.00
2018-12-12T07:12:41.586Z,12.00
2018-12-12T07:13:41.577Z,12.00
2018-12-12T07:14:41.592Z,12.00
2018-12-12T07:15:41.573Z,16.00
2018-12-12T07:16:41.536Z,16.00
2018-12-12T07:17:41.552Z,24.00
2018-12-12T07:18:49.071Z,24.00
2018-12-12T07:19:41.524Z,32.00
2018-12-12T07:20:41.501Z,32.00
2018-12-12T07:21:41.507Z,36.00
2018-12-12T07:22:41.481Z,40.00
2018-12-12T07:23:41.471Z,44.00
2018-12-12T07:24:41.542Z,52.00
2018-12-12T07:25:41.472Z,56.00
2018-12-12T07:26:41.432Z,60.00
2018-12-12T07:27:41.417Z,68.00
2018-12-12T07:28:41.404Z,72.00
2018-12-12T07:29:41.400Z,80.00
2018-12-12T07:30:41.405Z,88.00
2018-12-12T07:31:41.375Z,92.00
2018-12-12T07:32:41.377Z,100.00
2018-12-12T07:33:41.365Z,108.00
2018-12-12T07:34:41.337Z,116.00
2018-12-12T07:35:41.347Z,128.00
2018-12-12T07:36:41.315Z,136.00
2018-12-12T07:37:41.309Z,140.00
2018-12-12T07:38:41.297Z,148.00
2018-12-12T07:39:41.282Z,160.00
2018-12-12T07:40:41.298Z,168.00
2018-12-12T07:41:41.263Z,176.00
2018-12-12T07:42:41.250Z,184.00
2018-12-12T07:43:41.247Z,192.00
2018-12-12T07:44:41.236Z,196.00
2018-12-12T07:45:41.226Z,204.00
2018-12-12T07:46:42.382Z,212.00
2018-12-12T07:47:41.197Z,220.00
2018-12-12T07:48:41.182Z,224.00
2018-12-12T07:49:41.169Z,232.00
2018-12-12T07:50:41.159Z,236.00
2018-12-12T07:51:41.176Z,240.00
2018-12-12T07:52:41.161Z,244.00
2018-12-12T07:53:41.133Z,252.00
2018-12-12T07:54:48.667Z,264.00
2018-12-12T07:55:41.108Z,292.00
2018-12-12T07:56:41.121Z,304.00
2018-12-12T07:57:41.109Z,300.00
2018-12-12T07:58:41.078Z,284.00
2018-12-12T07:59:41.058Z,292.00
2018-12-12T08:00:41.073Z,292.00
2018-12-12T08:01:49.843Z,296.00
2018-12-12T08:02:41.043Z,304.00
2018-12-12T08:03:41.031Z,308.00
2018-12-12T08:04:41.010Z,316.00
2018-12-12T08:05:41.076Z,328.00
2018-12-12T08:06:40.985Z,340.00
2018-12-12T08:07:40.993Z,348.00
2018-12-12T08:08:40.967Z,360.00
2018-12-12T08:09:40.964Z,364.00
2018-12-12T08:10:40.952Z,380.00
2018-12-12T08:11:40.988Z,420.00
2018-12-12T08:12:40.938Z,444.00
2018-12-12T08:13:40.965Z,456.00
2018-12-12T08:14:40.897Z,448.00
2018-12-12T08:15:40.907Z,428.00
2018-12-12T08:16:40.891Z,412.00
2018-12-12T08:17:40.906Z,424.00
2018-12-12T08:18:40.855Z,440.00
2018-12-12T08:19:40.891Z,448.00
2018-12-12T08:20:40.905Z,468.00
2018-12-12T08:21:40.826Z,480.00
2018-12-12T08:22:40.846Z,500.00
2018-12-12T08:23:40.920Z,508.00
2018-12-12T08:24:40.786Z,500.00
2018-12-12T08:25:40.780Z,496.00
2018-12-12T08:26:40.775Z,504.00
2018-12-12T08:27:40.763Z,528.00
2018-12-12T08:28:40.762Z,560.00
2018-12-12T08:29:40.730Z,608.00
2018-12-12T08:30:40.740Z,668.00
2018-12-12T08:31:40.727Z,676.00
2018-12-12T08:32:40.718Z,648.00
2018-12-12T08:33:40.692Z,616.00
2018-12-12T08:34:40.725Z,588.00
2018-12-12T08:35:40.668Z,580.00
2018-12-12T08:36:40.733Z,592.00
2018-12-12T08:37:40.646Z,628.00
2018-12-12T08:38:40.681Z,624.00
2018-12-12T08:39:40.978Z,620.00
2018-12-12T08:40:40.737Z,628.00
2018-12-12T08:41:40.708Z,644.00
2018-12-12T08:42:40.592Z,660.00
2018-12-12T08:43:40.596Z,684.00
2018-12-12T08:44:40.575Z,752.00
2018-12-12T08:45:40.560Z,820.00
2018-12-12T08:46:40.543Z,908.00
2018-12-12T08:47:40.542Z,972.00
2018-12-12T08:48:40.554Z,1036.00
2018-12-12T08:49:40.512Z,1104.00
2018-12-12T08:50:40.599Z,1156.00
2018-12-12T08:51:40.494Z,1188.00
2018-12-12T08:52:40.509Z,1208.00
2018-12-12T08:53:40.523Z,1216.00
2018-12-12T08:54:40.456Z,1232.00
2018-12-12T08:55:40.459Z,1268.00
2018-12-12T08:56:40.438Z,1260.00
2018-12-12T08:57:40.428Z,1292.00
2018-12-12T08:58:40.466Z,1316.00
2018-12-12T08:59:40.413Z,1304.00
2018-12-12T09:00:40.397Z,1312.00
2018-12-12T09:01:40.431Z,1276.00
2018-12-12T09:02:40.367Z,1224.00
2018-12-12T09:03:40.358Z,1176.00
2018-12-12T09:04:40.369Z,1168.00
2018-12-12T09:05:40.334Z,1148.00
2018-12-12T09:06:40.331Z,1108.00
2018-12-12T09:07:40.351Z,1088.00
2018-12-12T09:08:40.306Z,1076.00
2018-12-12T09:09:40.323Z,1068.00
2018-12-12T09:10:40.281Z,1064.00
2018-12-12T09:11:40.269Z,1080.00
2018-12-12T09:12:40.258Z,1084.00
2018-12-12T09:13:40.281Z,1036.00
2018-12-12T09:14:40.355Z,972.00
2018-12-12T09:15:40.233Z,952.00
2018-12-12T09:16:40.221Z,932.00
2018-12-12T09:17:40.240Z,944.00
2018-12-12T09:21:13.237Z,944.00
2018-12-12T09:22:20.770Z,928.00
2018-12-12T09:23:21.787Z,904.00
2018-12-12T09:24:21.720Z,892.00
2018-12-12T09:25:23.050Z,888.00
2018-12-12T09:26:20.697Z,864.00
2018-12-12T09:27:13.153Z,840.00
2018-12-12T09:28:13.135Z,832.00
2018-12-12T09:29:13.152Z,832.00
2018-12-12T09:30:13.192Z,832.00
2018-12-12T09:31:13.098Z,836.00
2018-12-12T09:32:13.098Z,852.00
2018-12-12T09:33:13.071Z,868.00
2018-12-12T09:34:13.070Z,876.00
2018-12-12T09:35:13.084Z,844.00
2018-12-12T09:36:13.092Z,820.00
2018-12-12T09:37:13.039Z,788.00
2018-12-12T09:38:13.017Z,784.00
2018-12-12T09:39:13.082Z,788.00
2018-12-12T09:40:13.050Z,804.00
2018-12-12T09:41:13.044Z,820.00
2018-12-12T09:42:21.608Z,844.00
2018-12-12T09:43:12.984Z,868.00
2018-12-12T09:44:12.987Z,900.00
2018-12-12T09:45:12.948Z,940.00
2018-12-12T09:46:12.931Z,980.00
2018-12-12T09:47:12.940Z,1008.00
2018-12-12T09:48:19.136Z,1012.00
2018-12-12T09:49:13.939Z,1016.00
2018-12-12T09:50:12.883Z,1004.00
2018-12-12T09:51:20.442Z,992.00
2018-12-12T09:52:12.924Z,980.00
2018-12-12T09:53:12.863Z,992.00
2018-12-12T09:54:12.876Z,1024.00
2018-12-12T09:55:12.834Z,1064.00
2018-12-12T09:56:12.821Z,1096.00
2018-12-12T09:57:12.850Z,1088.00
2018-12-12T09:58:12.801Z,1072.00
2018-12-12T09:59:12.787Z,1072.00
2018-12-12T10:00:12.828Z,1100.00
2018-12-12T10:01:12.774Z,1144.00
2018-12-12T10:02:12.778Z,1184.00
2018-12-12T10:03:12.755Z,1220.00
2018-12-12T10:04:12.735Z,1240.00
2018-12-12T10:05:12.730Z,1264.00
2018-12-12T10:06:12.717Z,1288.00
2018-12-12T10:07:12.736Z,1288.00
2018-12-12T10:08:12.693Z,1268.00
2018-12-12T10:09:12.686Z,1248.00
2018-12-12T10:10:12.676Z,1240.00
2018-12-12T10:11:12.668Z,1216.00
2018-12-12T10:12:12.679Z,1192.00
2018-12-12T10:13:12.670Z,1176.00
2018-12-12T10:14:12.626Z,1168.00
2018-12-12T10:15:12.619Z,1172.00
2018-12-12T10:16:12.627Z,1180.00
2018-12-12T10:17:12.596Z,1204.00
2018-12-12T10:18:12.601Z,1240.00
2018-12-12T10:19:12.576Z,1284.00
2018-12-12T10:20:12.597Z,1316.00
2018-12-12T10:21:12.551Z,1320.00
2018-12-12T10:22:12.587Z,1304.00
2018-12-12T10:23:12.603Z,1296.00
2018-12-12T10:24:12.524Z,1308.00
2018-12-12T10:25:12.512Z,1312.00
2018-12-12T10:26:12.534Z,1328.00
2018-12-12T10:27:12.490Z,1344.00
2018-12-12T10:28:12.480Z,1360.00
2018-12-12T10:29:12.479Z,1368.00
2018-12-12T10:30:12.457Z,1348.00
2018-12-12T10:31:12.450Z,1328.00
2018-12-12T10:32:12.436Z,1300.00
2018-12-12T10:33:12.430Z,1280.00
2018-12-12T10:34:12.432Z,1284.00
2018-12-12T10:35:12.406Z,1360.00
2018-12-12T10:36:12.398Z,1500.00
2018-12-12T10:37:12.387Z,1672.00
2018-12-12T10:38:12.367Z,1820.00
2018-12-12T10:39:12.377Z,1900.00
2018-12-12T10:40:12.348Z,1872.00
2018-12-12T10:41:12.339Z,1760.00
2018-12-12T10:42:12.341Z,1624.00
2018-12-12T10:43:12.364Z,1520.00
2018-12-12T10:44:12.334Z,1504.00
2018-12-12T10:45:12.298Z,1576.00
2018-12-12T10:46:12.285Z,1728.00
2018-12-12T10:47:12.281Z,1924.00
2018-12-12T10:48:12.288Z,2124.00
2018-12-12T10:49:12.302Z,2268.00
2018-12-12T10:50:12.284Z,2308.00
2018-12-12T10:51:12.225Z,2188.00
2018-12-12T10:52:12.224Z,1976.00
2018-12-12T10:53:12.245Z,1864.00
2018-12-12T10:54:12.199Z,1876.00
2018-12-12T10:55:12.243Z,1872.00
2018-12-12T10:56:12.176Z,1820.00
2018-12-12T10:57:12.169Z,1856.00
2018-12-12T10:58:12.188Z,1956.00
2018-12-12T10:59:12.149Z,2120.00
2018-12-12T11:00:12.801Z,2408.00
2018-12-12T11:01:12.157Z,2612.00
2018-12-12T11:02:12.115Z,2616.00
2018-12-12T11:03:12.097Z,2460.00
2018-12-12T11:04:12.091Z,2240.00
2018-12-12T11:05:12.098Z,2024.00
2018-12-12T11:06:12.100Z,2028.00
2018-12-12T11:07:12.049Z,2228.00
2018-12-12T11:08:12.073Z,2360.00
2018-12-12T11:09:12.111Z,2276.00
2018-12-12T11:10:12.115Z,2172.00
2018-12-12T11:11:12.027Z,2064.00
2018-12-12T11:12:12.022Z,2044.00
2018-12-12T11:13:11.991Z,2076.00
2018-12-12T11:14:11.977Z,2156.00
2018-12-12T11:15:11.973Z,2256.00
2018-12-12T11:16:11.979Z,2360.00
2018-12-12T11:17:11.952Z,2408.00
2018-12-12T11:18:11.933Z,2252.00
2018-12-12T11:19:11.945Z,2040.00
2018-12-12T11:20:11.911Z,1876.00
2018-12-12T11:21:11.900Z,1844.00
2018-12-12T11:22:11.925Z,1900.00
2018-12-12T11:23:11.898Z,2016.00
2018-12-12T11:24:11.873Z,2132.00
2018-12-12T11:25:11.867Z,2120.00
2018-12-12T11:26:11.853Z,2136.00
2018-12-12T11:27:11.871Z,2096.00
2018-12-12T11:28:11.830Z,2076.00
2018-12-12T11:29:11.812Z,2044.00
2018-12-12T11:30:11.809Z,1984.00
2018-12-12T11:31:11.811Z,1968.00
2018-12-12T11:32:11.837Z,2000.00
2018-12-12T11:33:11.789Z,2028.00
2018-12-12T11:34:11.781Z,2016.00
2018-12-12T11:35:11.777Z,2016.00
2018-12-12T11:36:11.746Z,1848.00
2018-12-12T11:37:11.756Z,1672.00
2018-12-12T11:38:11.762Z,1440.00
2018-12-12T11:39:11.708Z,1312.00
2018-12-12T11:40:11.698Z,1292.00
2018-12-12T11:41:11.735Z,1284.00
2018-12-12T11:42:11.706Z,1228.00
2018-12-12T11:43:11.670Z,1156.00
2018-12-12T11:44:11.652Z,1112.00
2018-12-12T11:45:11.650Z,1116.00
2018-12-12T11:46:11.647Z,1096.00
2018-12-12T11:47:11.641Z,1088.00
2018-12-12T11:48:11.608Z,1084.00
2018-12-12T11:49:11.598Z,1084.00
2018-12-12T11:50:11.641Z,1084.00
2018-12-12T11:51:11.653Z,1080.00
2018-12-12T11:52:11.607Z,1084.00
2018-12-12T11:53:11.765Z,1084.00
2018-12-12T11:54:11.685Z,1080.00
2018-12-12T11:55:11.698Z,1076.00
2018-12-12T11:56:11.663Z,1072.00
2018-12-12T11:57:11.613Z,1076.00
2018-12-12T11:58:11.564Z,1080.00
2018-12-12T11:59:11.622Z,1076.00
2018-12-12T12:00:11.639Z,1068.00
2018-12-12T12:01:11.584Z,1068.00
2018-12-12T12:02:11.544Z,1068.00
2018-12-12T12:03:11.448Z,1064.00
2018-12-12T12:04:11.649Z,1068.00
2018-12-12T12:05:11.522Z,1104.00
2018-12-12T12:06:11.498Z,1176.00
2018-12-12T12:07:11.513Z,1352.00
2018-12-12T12:08:11.525Z,1488.00
2018-12-12T12:09:11.461Z,1688.00
2018-12-12T12:10:11.475Z,1556.00
2018-12-12T12:11:11.451Z,1628.00
2018-12-12T12:12:11.473Z,1528.00
2018-12-12T12:13:11.505Z,1548.00
2018-12-12T12:14:11.428Z,1668.00
2018-12-12T12:15:11.376Z,1992.00
2018-12-12T12:16:11.380Z,2024.00
2018-12-12T12:17:11.302Z,2208.00
2018-12-12T12:18:11.389Z,2280.00
2018-12-12T12:19:11.310Z,2320.00
2018-12-12T12:20:11.296Z,2300.00
2018-12-12T12:21:11.287Z,2096.00
2018-12-12T12:22:11.328Z,2088.00
2018-12-12T12:23:11.356Z,2156.00
2018-12-12T12:24:11.362Z,2032.00
2018-12-12T12:25:11.359Z,2144.00
2018-12-12T12:26:11.296Z,1780.00
2018-12-12T12:27:11.191Z,1600.00
2018-12-12T12:28:11.179Z,1600.00
2018-12-12T12:29:11.182Z,1524.00
2018-12-12T12:30:11.159Z,1568.00
2018-12-12T12:31:11.159Z,1540.00
2018-12-12T12:32:11.130Z,1676.00
2018-12-12T12:33:11.153Z,1808.00
2018-12-12T12:34:11.155Z,1772.00
2018-12-12T12:35:11.100Z,1760.00
2018-12-12T12:36:11.090Z,1620.00
2018-12-12T12:37:11.087Z,1604.00
2018-12-12T12:38:11.066Z,1396.00
2018-12-12T12:39:11.075Z,1160.00
2018-12-12T12:40:11.045Z,1056.00
2018-12-12T12:41:11.032Z,1136.00
2018-12-12T12:42:11.020Z,1232.00
2018-12-12T12:43:11.034Z,1348.00
2018-12-12T12:44:11.031Z,1268.00
2018-12-12T12:45:11.140Z,1256.00
2018-12-12T12:46:11.092Z,1348.00
2018-12-12T12:47:10.967Z,1432.00
2018-12-12T12:48:10.954Z,1356.00
2018-12-12T12:49:10.965Z,1340.00
2018-12-12T12:50:10.991Z,1288.00
2018-12-12T12:51:10.924Z,1184.00
2018-12-12T12:52:10.917Z,1256.00
2018-12-12T12:53:10.940Z,1352.00
2018-12-12T12:54:10.904Z,1368.00
2018-12-12T12:55:10.915Z,1344.00
2018-12-12T12:56:10.870Z,1268.00
2018-12-12T12:57:10.863Z,1260.00
2018-12-12T12:58:10.856Z,1052.00
2018-12-12T12:59:10.840Z,864.00
2018-12-12T13:00:10.852Z,816.00
2018-12-12T13:01:10.823Z,780.00
2018-12-12T13:02:10.803Z,744.00
2018-12-12T13:03:10.804Z,888.00